Time;durP1;ratioP1;P1;durP2;ratioP2;P2;SDS_P1;SDS_P2;PMS_P1;PMS_P2;Temp;Humidity;BMP_temperature;BMP_pressure;BME280_temperature;BME280_humidity;BME280_pressure;Samples;Min_cycle;Max_cycle;Signal;HPM_P1;HPM_P2
2023/09/22 00:00:43;;;;;;;0.82;0.70;;;16.60;99.90;;;;;;5055142;28;20181;-68
2023/09/22 00:03:13;;;;;;;0.75;0.68;;;16.50;99.90;;;;;;5053273;28;20227;-68
2023/09/22 00:05:39;;;;;;;0.95;0.75;;;16.50;99.90;;;;;;5052029;28;20165;-67
2023/09/22 00:08:06;;;;;;;1.38;0.80;;;16.50;99.90;;;;;;5044114;28;20291;-68
2023/09/22 00:10:35;;;;;;;1.52;0.88;;;16.50;99.90;;;;;;5056432;28;20180;-68
2023/09/22 00:13:03;;;;;;;1.50;0.60;;;16.50;99.90;;;;;;5056056;28;20185;-67
2023/09/22 00:15:32;;;;;;;0.82;0.60;;;16.50;99.90;;;;;;5054542;28;20198;-67
2023/09/22 00:17:58;;;;;;;1.00;0.68;;;16.40;99.90;;;;;;5055763;28;20178;-67
2023/09/22 00:20:24;;;;;;;0.80;0.60;;;16.40;99.90;;;;;;5040114;28;20181;-68
2023/09/22 00:22:50;;;;;;;1.00;0.88;;;16.40;99.90;;;;;;5054095;28;20224;-67
2023/09/22 00:25:16;;;;;;;0.80;0.80;;;16.40;99.90;;;;;;5036705;28;20170;-66
2023/09/22 00:27:44;;;;;;;0.93;0.65;;;16.30;99.90;;;;;;5037407;28;20289;-67
2023/09/22 00:30:12;;;;;;;1.70;0.75;;;16.30;99.90;;;;;;5038726;28;20207;-67
2023/09/22 00:32:41;;;;;;;0.98;0.70;;;16.30;99.90;;;;;;5054111;28;20260;-67
2023/09/22 00:35:10;;;;;;;1.10;0.70;;;16.20;99.90;;;;;;5054449;28;20185;-67
2023/09/22 00:37:36;;;;;;;1.00;0.70;;;16.20;99.90;;;;;;5038007;28;20288;-68
2023/09/22 00:40:02;;;;;;;0.90;0.70;;;16.20;99.90;;;;;;5054267;28;20299;-68
2023/09/22 00:42:30;;;;;;;0.88;0.70;;;16.10;99.90;;;;;;5052701;28;20174;-68
2023/09/22 00:44:56;;;;;;;2.45;0.88;;;16.10;99.90;;;;;;5054005;28;21045;-67
2023/09/22 00:47:21;;;;;;;0.70;0.60;;;16.00;99.90;;;;;;5055564;28;20217;-67
2023/09/22 00:49:49;;;;;;;1.08;0.68;;;16.00;99.90;;;;;;5053165;28;20216;-67
2023/09/22 00:52:18;;;;;;;0.88;0.70;;;16.00;99.90;;;;;;5054500;28;20192;-68
2023/09/22 00:54:47;;;;;;;1.10;0.85;;;16.00;99.90;;;;;;5056492;28;20188;-67
2023/09/22 00:57:12;;;;;;;1.15;0.90;;;16.00;99.90;;;;;;5051556;28;20192;-67
2023/09/22 00:59:40;;;;;;;1.17;0.90;;;16.00;99.90;;;;;;5055738;28;20185;-67
2023/09/22 01:02:05;;;;;;;1.73;0.70;;;15.90;99.90;;;;;;5054121;28;20200;-67
2023/09/22 01:04:31;;;;;;;1.48;0.88;;;15.90;99.90;;;;;;5055486;28;20193;-67
2023/09/22 01:06:59;;;;;;;0.90;0.63;;;15.90;99.90;;;;;;5054856;28;20181;-66
2023/09/22 01:09:27;;;;;;;1.17;0.80;;;15.90;99.90;;;;;;5054629;28;20185;-67
2023/09/22 01:11:52;;;;;;;0.90;0.70;;;15.80;99.90;;;;;;5053516;28;20173;-67
2023/09/22 01:14:21;;;;;;;0.80;0.70;;;15.80;99.90;;;;;;5053156;28;20451;-67
2023/09/22 01:16:51;;;;;;;1.52;0.93;;;15.80;99.90;;;;;;5043114;28;20270;-67
2023/09/22 01:19:17;;;;;;;0.80;0.65;;;15.70;99.90;;;;;;5052404;28;20197;-67
2023/09/22 01:21:48;;;;;;;1.00;0.82;;;15.70;99.90;;;;;;5053142;28;20211;-67
2023/09/22 01:24:14;;;;;;;1.83;0.70;;;15.60;99.90;;;;;;5051396;28;20201;-67
2023/09/22 01:26:40;;;;;;;1.63;0.80;;;15.60;99.90;;;;;;5052607;28;20173;-67
2023/09/22 01:29:06;;;;;;;2.35;0.70;;;15.60;99.90;;;;;;5053504;28;20181;-66
2023/09/22 01:31:36;;;;;;;2.30;0.90;;;15.50;99.90;;;;;;5041515;28;20268;-67
2023/09/22 01:34:02;;;;;;;1.58;0.88;;;15.50;99.90;;;;;;5051776;28;20260;-66
2023/09/22 01:36:28;;;;;;;1.48;0.90;;;15.40;99.90;;;;;;5053750;28;20189;-67
2023/09/22 01:38:55;;;;;;;1.10;0.80;;;15.40;99.90;;;;;;5053941;28;20239;-66
2023/09/22 01:41:22;;;;;;;1.50;0.77;;;15.30;99.90;;;;;;5054086;28;20187;-66
2023/09/22 01:43:48;;;;;;;1.00;0.77;;;15.30;99.90;;;;;;5052669;28;20189;-66
2023/09/22 01:46:16;;;;;;;3.13;0.90;;;15.20;99.90;;;;;;5053797;28;20173;-66
2023/09/22 01:48:41;;;;;;;1.92;0.98;;;15.20;99.90;;;;;;5052105;28;20987;-66
2023/09/22 01:51:10;;;;;;;1.40;0.80;;;15.10;99.90;;;;;;5035393;28;20233;-66
2023/09/22 01:53:36;;;;;;;3.35;0.80;;;15.10;99.90;;;;;;5042472;28;20185;-67
2023/09/22 01:56:06;;;;;;;0.95;0.60;;;15.00;99.90;;;;;;5036390;28;20243;-66
2023/09/22 01:58:32;;;;;;;0.85;0.75;;;15.00;99.90;;;;;;5043491;28;20209;-66
2023/09/22 02:00:58;;;;;;;1.20;0.90;;;15.00;99.90;;;;;;5053261;28;20192;-66
2023/09/22 02:03:27;;;;;;;0.95;0.68;;;15.00;99.90;;;;;;5054007;28;20184;-66
2023/09/22 02:05:55;;;;;;;0.80;0.70;;;15.00;99.90;;;;;;5051104;28;20205;-66
2023/09/22 02:08:21;;;;;;;1.13;0.80;;;15.00;99.90;;;;;;5053887;28;20178;-67
2023/09/22 02:10:50;;;;;;;1.88;1.05;;;14.90;99.90;;;;;;5051694;28;20170;-66
2023/09/22 02:13:15;;;;;;;7.28;1.02;;;14.90;99.90;;;;;;5052684;28;20209;-66
2023/09/22 02:15:43;;;;;;;1.63;0.75;;;14.90;99.90;;;;;;5055135;28;20197;-66
2023/09/22 02:18:10;;;;;;;1.10;0.82;;;14.90;99.90;;;;;;5052472;28;20177;-66
2023/09/22 02:20:35;;;;;;;0.98;0.75;;;14.90;99.90;;;;;;5052105;28;20169;-67
2023/09/22 02:23:02;;;;;;;1.35;0.77;;;14.90;99.90;;;;;;5052989;28;20192;-67
2023/09/22 02:25:27;;;;;;;0.98;0.82;;;14.90;99.90;;;;;;5051846;28;20174;-66
2023/09/22 02:27:55;;;;;;;1.35;0.80;;;14.90;99.90;;;;;;5033832;28;20176;-66
2023/09/22 02:30:22;;;;;;;1.42;0.77;;;14.90;99.90;;;;;;5067147;28;20184;-67
2023/09/22 02:32:49;;;;;;;1.13;0.98;;;14.90;99.90;;;;;;5051844;28;20315;-67
2023/09/22 02:35:16;;;;;;;1.92;0.70;;;14.80;99.90;;;;;;5051218;28;20280;-67
2023/09/22 02:37:44;;;;;;;1.73;1.48;;;14.80;99.90;;;;;;5053429;28;20185;-67
2023/09/22 02:40:12;;;;;;;1.02;0.82;;;14.80;99.90;;;;;;5051182;28;20209;-67
2023/09/22 02:42:38;;;;;;;1.33;0.90;;;14.80;99.90;;;;;;5051949;28;20200;-67
2023/09/22 02:45:04;;;;;;;2.35;0.80;;;14.80;99.90;;;;;;5051194;28;20199;-66
2023/09/22 02:47:30;;;;;;;2.55;0.88;;;14.80;99.90;;;;;;5050694;28;20181;-66
2023/09/22 02:49:56;;;;;;;6.15;0.73;;;14.80;99.90;;;;;;5050166;28;20216;-66
2023/09/22 02:52:22;;;;;;;2.67;0.90;;;14.80;99.90;;;;;;5049708;28;20189;-67
2023/09/22 02:54:54;;;;;;;0.77;0.70;;;14.80;99.90;;;;;;5050300;28;20177;-67
2023/09/22 02:57:25;;;;;;;0.98;0.70;;;14.80;99.90;;;;;;5052074;28;20284;-66
2023/09/22 02:59:56;;;;;;;1.30;0.80;;;14.80;99.90;;;;;;5053075;28;20201;-67
2023/09/22 03:02:24;;;;;;;1.48;1.00;;;14.70;99.90;;;;;;5052055;28;20185;-67
2023/09/22 03:04:53;;;;;;;2.28;1.00;;;14.70;99.90;;;;;;5049319;28;20215;-67
2023/09/22 03:07:20;;;;;;;1.00;0.85;;;14.70;99.90;;;;;;5049354;28;20247;-67
2023/09/22 03:09:50;;;;;;;1.23;0.70;;;14.70;99.90;;;;;;5053112;28;20208;-66
2023/09/22 03:12:16;;;;;;;2.35;0.80;;;14.70;99.90;;;;;;5052830;28;20197;-66
2023/09/22 03:14:44;;;;;;;1.67;1.00;;;14.70;99.90;;;;;;5053784;28;20265;-67
2023/09/22 03:17:11;;;;;;;2.90;0.85;;;14.70;99.90;;;;;;5052585;28;20527;-67
2023/09/22 03:19:37;;;;;;;1.73;0.80;;;14.60;99.90;;;;;;5050905;28;20189;-66
2023/09/22 03:22:03;;;;;;;3.33;1.02;;;14.70;99.90;;;;;;5053376;28;20234;-67
2023/09/22 03:24:34;;;;;;;1.88;0.95;;;14.70;99.90;;;;;;5055301;28;20177;-66
2023/09/22 03:27:02;;;;;;;1.15;0.90;;;14.80;99.90;;;;;;5051920;28;20201;-66
2023/09/22 03:29:30;;;;;;;2.33;0.98;;;14.80;99.90;;;;;;5069311;28;20205;-67
2023/09/22 03:31:56;;;;;;;1.10;0.90;;;14.80;99.90;;;;;;5050785;28;20220;-67
2023/09/22 03:34:23;;;;;;;2.35;0.90;;;14.80;99.90;;;;;;5051031;28;20444;-67
2023/09/22 03:39:21;;;;;;;2.28;1.10;;;14.90;99.90;;;;;;5054392;28;20232;-67
2023/09/22 03:41:52;;;;;;;1.58;0.98;;;14.90;99.90;;;;;;5036478;28;20180;-66
2023/09/22 03:44:20;;;;;;;1.58;1.17;;;14.90;99.90;;;;;;5034700;28;20185;-70
2023/09/22 03:46:46;;;;;;;2.72;1.27;;;14.90;99.90;;;;;;5039522;28;20198;-67
2023/09/22 03:49:12;;;;;;;1.52;1.10;;;15.00;99.90;;;;;;5039723;28;20223;-67
2023/09/22 03:51:38;;;;;;;1.60;0.90;;;15.00;99.90;;;;;;5038831;28;20184;-66
2023/09/22 03:54:04;;;;;;;1.05;0.80;;;15.00;99.90;;;;;;5040301;28;20262;-67
2023/09/22 03:56:31;;;;;;;1.33;1.05;;;15.10;99.90;;;;;;5035503;28;20181;-67
2023/09/22 03:58:57;;;;;;;1.83;1.17;;;15.10;99.90;;;;;;5037574;28;20205;-68
2023/09/22 04:01:23;;;;;;;1.30;0.98;;;15.10;99.90;;;;;;5039129;28;20280;-67
2023/09/22 04:03:48;;;;;;;0.98;0.90;;;15.20;99.90;;;;;;5041289;28;20281;-67
2023/09/22 04:06:16;;;;;;;0.98;0.88;;;15.20;99.90;;;;;;5041790;28;20258;-67
2023/09/22 04:08:44;;;;;;;1.48;0.90;;;15.20;99.90;;;;;;5039750;28;20185;-67
2023/09/22 04:11:10;;;;;;;1.95;1.20;;;15.20;99.90;;;;;;5038449;28;20186;-67
2023/09/22 04:13:35;;;;;;;1.90;1.27;;;15.20;99.90;;;;;;5040290;28;20287;-68
2023/09/22 04:16:01;;;;;;;1.20;0.80;;;15.20;99.90;;;;;;5044822;28;20181;-67
2023/09/22 04:18:30;;;;;;;1.98;1.10;;;15.20;99.90;;;;;;5041988;28;20200;-67
2023/09/22 04:20:57;;;;;;;5.60;1.27;;;15.30;99.90;;;;;;5077244;28;20181;-68
2023/09/22 04:23:27;;;;;;;2.25;1.25;;;15.30;99.90;;;;;;5041799;28;20189;-67
2023/09/22 04:25:59;;;;;;;1.42;0.90;;;15.30;99.90;;;;;;5040691;28;20249;-67
2023/09/22 04:28:25;;;;;;;1.15;0.90;;;15.30;99.90;;;;;;5040137;28;20188;-67
2023/09/22 04:30:51;;;;;;;2.47;1.00;;;15.30;99.90;;;;;;5039847;28;20174;-67
2023/09/22 04:33:20;;;;;;;1.50;1.10;;;15.30;99.90;;;;;;5039523;28;20193;-68
2023/09/22 04:35:47;;;;;;;3.13;1.05;;;15.30;99.90;;;;;;5072759;28;20190;-67
2023/09/22 04:38:14;;;;;;;1.50;1.00;;;15.30;99.90;;;;;;5039611;28;20288;-67
2023/09/22 04:40:42;;;;;;;1.63;0.90;;;15.30;99.90;;;;;;5039643;28;20220;-67
2023/09/22 04:43:08;;;;;;;2.50;1.10;;;15.30;99.90;;;;;;5039720;28;20169;-67
2023/09/22 04:45:40;;;;;;;1.00;0.90;;;15.30;99.90;;;;;;5039542;28;20253;-67
2023/09/22 04:48:08;;;;;;;1.50;0.90;;;15.30;99.90;;;;;;5071294;28;20191;-67
2023/09/22 04:50:36;;;;;;;1.75;1.10;;;15.30;99.90;;;;;;5042708;28;20200;-67
2023/09/22 04:53:03;;;;;;;2.40;0.80;;;15.30;99.90;;;;;;5041322;28;20289;-67
2023/09/22 04:55:38;;;;;;;1.65;0.90;;;15.30;99.90;;;;;;5050784;28;20211;-67
2023/09/22 04:58:06;;;;;;;1.75;0.95;;;15.30;99.90;;;;;;5046749;28;20181;-67
2023/09/22 05:00:33;;;;;;;1.88;0.73;;;15.30;99.90;;;;;;5039381;28;20213;-68
2023/09/22 05:03:07;;;;;;;1.30;0.80;;;15.30;99.90;;;;;;5035099;28;20197;-67
2023/09/22 05:05:33;;;;;;;1.67;1.23;;;15.30;99.90;;;;;;5039417;28;20173;-68
2023/09/22 05:07:59;;;;;;;1.00;0.90;;;15.30;99.90;;;;;;5069864;28;20177;-68
2023/09/22 05:10:31;;;;;;;1.92;1.05;;;15.20;99.90;;;;;;5047365;28;20185;-68
2023/09/22 05:12:57;;;;;;;0.85;0.70;;;15.20;99.90;;;;;;5046278;28;20181;-67
2023/09/22 05:15:22;;;;;;;1.77;0.82;;;15.20;99.90;;;;;;5073372;28;20192;-67
2023/09/22 05:17:48;;;;;;;1.73;0.90;;;15.20;99.90;;;;;;5038851;28;20246;-68
2023/09/22 05:20:14;;;;;;;1.30;0.90;;;15.20;99.90;;;;;;5040677;28;20209;-68
2023/09/22 05:22:42;;;;;;;1.33;0.90;;;15.20;99.90;;;;;;5038476;28;21127;-67
2023/09/22 05:25:09;;;;;;;1.60;1.00;;;15.20;99.90;;;;;;5041009;28;20174;-67
2023/09/22 05:27:40;;;;;;;1.83;0.93;;;15.20;99.90;;;;;;5038872;28;20204;-67
2023/09/22 05:30:07;;;;;;;2.45;1.10;;;15.20;99.90;;;;;;5070652;28;20245;-67
2023/09/22 05:32:34;;;;;;;1.65;1.30;;;15.20;99.90;;;;;;5057444;28;20181;-67
2023/09/22 05:35:02;;;;;;;2.92;1.10;;;15.20;99.90;;;;;;5038557;28;20198;-68
2023/09/22 05:37:31;;;;;;;3.42;1.27;;;15.10;99.90;;;;;;5038131;28;20193;-67
2023/09/22 05:39:59;;;;;;;1.17;1.00;;;15.10;99.90;;;;;;5037381;28;20205;-67
2023/09/22 05:42:24;;;;;;;1.75;1.00;;;15.20;99.90;;;;;;5022308;28;20222;-68
2023/09/22 05:44:52;;;;;;;2.65;1.00;;;15.20;99.90;;;;;;5038054;28;20177;-67
2023/09/22 05:47:20;;;;;;;3.15;1.15;;;15.20;99.90;;;;;;5037837;28;20170;-67
2023/09/22 05:49:47;;;;;;;1.73;0.90;;;15.20;99.90;;;;;;5037431;28;20185;-68
2023/09/22 05:52:12;;;;;;;1.05;0.88;;;15.20;99.90;;;;;;5069724;28;20231;-67
2023/09/22 05:54:38;;;;;;;1.08;0.85;;;15.20;99.90;;;;;;5036994;28;20189;-67
2023/09/22 05:57:04;;;;;;;1.70;1.00;;;15.20;99.90;;;;;;5038525;28;20177;-68
2023/09/22 05:59:32;;;;;;;1.77;1.08;;;15.20;99.90;;;;;;5037935;28;20189;-67
2023/09/22 06:02:00;;;;;;;1.00;0.80;;;15.30;99.90;;;;;;5037881;28;20198;-67
2023/09/22 06:04:28;;;;;;;2.00;1.10;;;15.30;99.90;;;;;;5058464;28;20184;-67
2023/09/22 06:06:54;;;;;;;1.83;0.77;;;15.30;99.90;;;;;;5037780;28;20259;-67
2023/09/22 06:09:21;;;;;;;2.33;1.20;;;15.30;99.90;;;;;;5033551;28;20560;-66
2023/09/22 06:11:47;;;;;;;1.15;0.90;;;15.30;99.90;;;;;;5070861;28;20190;-67
2023/09/22 06:14:13;;;;;;;1.80;1.10;;;15.40;99.90;;;;;;5039100;28;20191;-67
2023/09/22 06:16:41;;;;;;;3.17;1.08;;;15.30;99.90;;;;;;5037617;28;20205;-67
2023/09/22 06:19:10;;;;;;;2.88;0.80;;;15.40;99.90;;;;;;5036936;28;20262;-67
2023/09/22 06:21:36;;;;;;;1.58;1.00;;;15.40;99.90;;;;;;5037463;28;20177;-67
2023/09/22 06:24:01;;;;;;;2.85;1.00;;;15.40;99.90;;;;;;5035874;28;20264;-68
2023/09/22 06:26:27;;;;;;;2.08;1.00;;;15.40;99.90;;;;;;5071030;28;20267;-68
2023/09/22 06:28:55;;;;;;;1.45;0.95;;;15.40;99.90;;;;;;5034281;28;20235;-68
2023/09/22 06:31:21;;;;;;;1.92;1.08;;;15.40;99.90;;;;;;5037801;28;20178;-67
2023/09/22 06:33:49;;;;;;;2.50;1.20;;;15.40;99.90;;;;;;5037601;28;20319;-67
2023/09/22 06:36:17;;;;;;;1.50;0.93;;;15.50;99.90;;;;;;5037119;28;20193;-67
2023/09/22 06:38:43;;;;;;;2.08;0.90;;;15.50;99.90;;;;;;5037240;28;20219;-67
2023/09/22 06:41:16;;;;;;;1.77;0.98;;;15.50;99.90;;;;;;5066506;28;20174;-67
2023/09/22 06:43:42;;;;;;;1.48;1.13;;;15.50;99.90;;;;;;5037092;28;20284;-67
2023/09/22 06:46:10;;;;;;;1.55;1.35;;;15.50;99.90;;;;;;5071410;28;20193;-68
2023/09/22 06:48:36;;;;;;;1.70;1.30;;;15.50;99.90;;;;;;5070461;28;20181;-67
2023/09/22 06:51:02;;;;;;;1.75;1.13;;;15.60;99.90;;;;;;5044165;28;20197;-67
2023/09/22 06:53:33;;;;;;;1.15;0.90;;;15.60;99.90;;;;;;5042613;28;20275;-69
2023/09/22 06:56:06;;;;;;;1.80;0.93;;;15.60;99.90;;;;;;5052989;28;20278;-67
2023/09/22 06:58:33;;;;;;;1.85;1.05;;;15.70;99.90;;;;;;5036527;28;20185;-67
2023/09/22 07:01:09;;;;;;;3.17;0.85;;;15.70;99.90;;;;;;5037081;28;20181;-66
2023/09/22 07:03:38;;;;;;;1.55;1.10;;;15.70;99.90;;;;;;5067048;28;20173;-67
2023/09/22 07:06:09;;;;;;;1.65;1.08;;;15.70;99.90;;;;;;5045667;28;20176;-66
2023/09/22 07:08:35;;;;;;;1.52;0.95;;;15.80;99.90;;;;;;5037135;28;20179;-67
2023/09/22 07:11:08;;;;;;;1.48;0.90;;;15.80;99.90;;;;;;5071387;28;20196;-67
2023/09/22 07:13:33;;;;;;;4.15;1.25;;;15.80;99.90;;;;;;5031473;28;20185;-67
2023/09/22 07:16:01;;;;;;;1.38;0.95;;;15.80;99.90;;;;;;5069441;28;20276;-69
2023/09/22 07:18:29;;;;;;;1.70;1.08;;;15.90;99.90;;;;;;5037651;28;20197;-68
2023/09/22 07:21:00;;;;;;;2.10;1.02;;;15.90;99.90;;;;;;5037309;28;20260;-67
2023/09/22 07:23:26;;;;;;;1.77;1.00;;;15.90;99.90;;;;;;5039098;28;20271;-67
2023/09/22 07:26:02;;;;;;;1.42;1.10;;;16.00;99.90;;;;;;5038840;28;20299;-67
2023/09/22 07:28:30;;;;;;;1.75;0.93;;;16.00;99.90;;;;;;5036504;28;20358;-67
2023/09/22 07:30:59;;;;;;;1.52;0.90;;;16.00;99.90;;;;;;5069050;28;20244;-68
2023/09/22 07:33:32;;;;;;;1.92;0.90;;;16.10;99.90;;;;;;5037086;28;20177;-67
2023/09/22 07:35:59;;;;;;;1.67;0.98;;;16.10;99.90;;;;;;5073484;28;20173;-67
2023/09/22 07:38:29;;;;;;;2.25;1.30;;;16.20;99.90;;;;;;5040931;28;20189;-67
2023/09/22 07:40:54;;;;;;;2.03;1.13;;;16.20;99.90;;;;;;5074266;28;20200;-67
2023/09/22 07:43:28;;;;;;;1.27;1.00;;;16.20;99.90;;;;;;5073572;28;20412;-67
2023/09/22 07:45:54;;;;;;;2.10;1.40;;;16.20;99.90;;;;;;5074719;28;20201;-68
2023/09/22 07:48:20;;;;;;;1.63;1.10;;;16.30;99.90;;;;;;5049544;28;20256;-68
2023/09/22 07:50:48;;;;;;;3.22;1.10;;;16.30;99.90;;;;;;5040711;28;20259;-67
2023/09/22 07:53:13;;;;;;;1.45;1.08;;;16.30;99.90;;;;;;5050442;28;20201;-68
2023/09/22 07:55:41;;;;;;;1.65;0.85;;;16.30;99.90;;;;;;5040613;28;20200;-68
2023/09/22 07:58:09;;;;;;;1.55;1.00;;;16.30;99.90;;;;;;5039815;28;20256;-65
2023/09/22 08:00:34;;;;;;;1.60;1.00;;;16.30;99.90;;;;;;5032813;28;20185;-67
2023/09/22 08:03:00;;;;;;;1.67;0.90;;;16.40;99.90;;;;;;5072935;28;20197;-74
2023/09/22 08:05:26;;;;;;;1.50;1.05;;;16.40;99.90;;;;;;5040099;28;20212;-68
2023/09/22 08:07:52;;;;;;;2.40;0.88;;;16.40;99.90;;;;;;5039891;28;20173;-74
2023/09/22 08:10:25;;;;;;;1.73;0.95;;;16.50;99.90;;;;;;5064540;28;20183;-72
2023/09/22 08:12:53;;;;;;;1.45;0.68;;;16.50;99.90;;;;;;5044363;28;20452;-73
2023/09/22 08:15:19;;;;;;;2.45;1.10;;;16.60;99.90;;;;;;5073857;28;20274;-74
2023/09/22 08:17:49;;;;;;;1.50;0.88;;;16.60;99.90;;;;;;5069759;28;20241;-73
2023/09/22 08:20:19;;;;;;;1.90;0.82;;;16.70;99.90;;;;;;5039857;28;20209;-72
2023/09/22 08:22:47;;;;;;;1.52;0.90;;;16.80;99.90;;;;;;5040413;28;20165;-74
2023/09/22 08:25:13;;;;;;;2.42;0.77;;;16.80;99.90;;;;;;5042130;28;20236;-73
2023/09/22 08:27:39;;;;;;;2.05;0.70;;;16.80;99.90;;;;;;5039990;28;20235;-74
2023/09/22 08:30:10;;;;;;;2.65;1.08;;;16.90;99.90;;;;;;5041725;28;20200;-69
2023/09/22 08:32:41;;;;;;;2.05;0.93;;;16.90;99.90;;;;;;5066015;28;20181;-73
2023/09/22 08:35:12;;;;;;;1.35;0.93;;;17.00;99.90;;;;;;5071397;28;20178;-73
2023/09/22 08:37:42;;;;;;;1.65;0.90;;;17.00;99.90;;;;;;5072804;28;20277;-73
2023/09/22 08:40:17;;;;;;;0.80;0.60;;;17.00;99.90;;;;;;5070910;28;20267;-74
2023/09/22 08:42:54;;;;;;;5.05;0.82;;;17.10;99.90;;;;;;5072276;28;20173;-71
2023/09/22 08:45:21;;;;;;;2.85;0.82;;;17.20;99.90;;;;;;5039395;28;20168;-72
2023/09/22 08:47:47;;;;;;;1.02;0.63;;;17.20;99.90;;;;;;5071326;28;20201;-74
2023/09/22 08:50:17;;;;;;;1.33;0.60;;;17.30;99.90;;;;;;5048005;28;20180;-73
2023/09/22 08:52:48;;;;;;;2.58;1.23;;;17.30;99.90;;;;;;5077291;28;20260;-73
2023/09/22 08:55:14;;;;;;;1.30;0.77;;;17.40;99.90;;;;;;5072636;28;20192;-74
2023/09/22 08:57:48;;;;;;;1.90;0.90;;;17.50;99.90;;;;;;5039304;28;20177;-73
2023/09/22 09:00:18;;;;;;;2.17;1.00;;;17.50;99.90;;;;;;5039516;28;20284;-74
2023/09/22 09:02:45;;;;;;;1.60;0.90;;;17.60;99.90;;;;;;5039760;28;20413;-75
2023/09/22 09:05:39;;;;;;;1.90;0.70;;;17.60;99.90;;;;;;5072596;28;20926;-69
2023/09/22 09:08:23;;;;;;;1.52;0.63;;;17.80;99.90;;;;;;5042093;28;20351;-74
2023/09/22 09:10:51;;;;;;;1.90;0.80;;;17.90;99.90;;;;;;5066705;28;20191;-71
2023/09/22 09:13:19;;;;;;;1.42;0.85;;;18.00;99.90;;;;;;5038868;28;20245;-74
2023/09/22 09:15:50;;;;;;;2.28;0.70;;;18.00;99.90;;;;;;5072033;28;20311;-73
2023/09/22 09:18:19;;;;;;;1.45;0.70;;;18.20;99.90;;;;;;5046534;28;20177;-75
2023/09/22 09:20:48;;;;;;;1.75;0.70;;;18.30;99.90;;;;;;5038823;28;20204;-74
2023/09/22 09:23:21;;;;;;;1.77;1.00;;;18.40;99.90;;;;;;5057106;28;20165;-73
2023/09/22 09:25:54;;;;;;;1.98;0.93;;;18.50;99.90;;;;;;5035776;28;20178;-71
2023/09/22 09:28:22;;;;;;;1.55;0.90;;;18.60;99.90;;;;;;5047557;28;20189;-73
2023/09/22 09:30:58;;;;;;;1.63;1.00;;;18.70;99.90;;;;;;5041098;28;20173;-74
2023/09/22 09:33:33;;;;;;;3.22;0.90;;;18.80;99.90;;;;;;5038215;28;20185;-74
2023/09/22 09:36:02;;;;;;;3.10;0.90;;;18.90;99.90;;;;;;5033884;28;20289;-73
2023/09/22 09:38:31;;;;;;;1.30;0.70;;;19.10;99.90;;;;;;5038216;28;20215;-74
2023/09/22 09:41:00;;;;;;;2.40;1.00;;;19.30;99.90;;;;;;5039396;28;20192;-74
2023/09/22 09:43:27;;;;;;;1.50;0.98;;;19.70;99.90;;;;;;5042176;28;20203;-74
2023/09/22 09:45:57;;;;;;;1.17;0.80;;;20.10;99.90;;;;;;5056439;28;20173;-72
2023/09/22 09:48:25;;;;;;;1.75;0.70;;;20.40;99.90;;;;;;5070548;28;20178;-71
2023/09/22 09:50:59;;;;;;;2.20;0.82;;;20.60;99.90;;;;;;5045615;28;20169;-72
2023/09/22 09:53:31;;;;;;;1.10;0.70;;;20.60;99.90;;;;;;5037929;28;20178;-72
2023/09/22 09:56:02;;;;;;;2.95;0.90;;;20.60;99.90;;;;;;5038146;28;20202;-71
2023/09/22 09:58:31;;;;;;;1.73;0.80;;;20.50;99.90;;;;;;5044867;28;20176;-73
2023/09/22 10:01:01;;;;;;;1.15;0.73;;;20.40;99.90;;;;;;5041041;28;20185;-73
2023/09/22 10:03:29;;;;;;;0.95;0.60;;;20.30;99.90;;;;;;5051225;28;20288;-74
2023/09/22 10:05:56;;;;;;;0.77;0.60;;;20.30;99.90;;;;;;5072111;28;20211;-73
2023/09/22 10:08:25;;;;;;;1.63;0.80;;;20.50;99.90;;;;;;5063518;28;20268;-73
2023/09/22 10:10:53;;;;;;;1.17;0.70;;;20.70;99.90;;;;;;5039187;28;20268;-72
2023/09/22 10:13:24;;;;;;;1.63;0.70;;;21.20;99.90;;;;;;5070458;28;20174;-70
2023/09/22 10:15:59;;;;;;;0.95;0.60;;;21.50;99.90;;;;;;5038200;28;20216;-72
2023/09/22 10:18:51;;;;;;;1.17;0.80;;;21.50;99.90;;;;;;5070109;28;20173;-74
2023/09/22 10:21:28;;;;;;;1.52;0.93;;;21.50;99.90;;;;;;5036832;28;20185;-73
2023/09/22 10:24:17;;;;;;;0.95;0.60;;;21.60;99.90;;;;;;5040804;28;20193;-73
2023/09/22 10:27:06;;;;;;;1.90;0.95;;;21.80;99.90;;;;;;5026849;28;20178;-74
2023/09/22 10:29:37;;;;;;;1.42;0.80;;;22.10;99.90;;;;;;5071804;28;20271;-72
2023/09/22 10:32:20;;;;;;;1.88;0.60;;;22.30;99.90;;;;;;5040965;28;20268;-75
2023/09/22 10:35:03;;;;;;;0.93;0.68;;;22.60;99.90;;;;;;5070226;28;20188;-74
2023/09/22 10:37:35;;;;;;;0.75;0.60;;;22.70;99.90;;;;;;5017811;28;20224;-74
2023/09/22 10:40:11;;;;;;;2.03;0.80;;;22.80;99.90;;;;;;5031680;28;20203;-74
2023/09/22 10:42:45;;;;;;;1.25;0.82;;;22.90;99.90;;;;;;5037057;28;20183;-72
2023/09/22 10:45:17;;;;;;;1.30;0.60;;;22.70;99.90;;;;;;5042171;28;20168;-71
2023/09/22 10:47:49;;;;;;;0.98;0.60;;;22.50;99.90;;;;;;5038403;28;20169;-71
2023/09/22 10:50:30;;;;;;;2.03;0.90;;;22.20;99.90;;;;;;5037348;28;20181;-73
2023/09/22 10:53:03;;;;;;;2.38;0.80;;;21.80;99.90;;;;;;5066480;28;20186;-72
2023/09/22 10:55:30;;;;;;;1.02;0.60;;;21.50;99.90;;;;;;5037017;28;20173;-73
2023/09/22 10:57:57;;;;;;;3.33;0.80;;;21.20;99.90;;;;;;5069571;28;20229;-72
2023/09/22 11:00:26;;;;;;;2.60;0.68;;;20.90;99.90;;;;;;5037030;28;20200;-71
2023/09/22 11:03:02;;;;;;;1.20;0.80;;;20.60;99.90;;;;;;5054145;28;20173;-72
2023/09/22 11:05:27;;;;;;;1.75;0.75;;;20.50;99.90;;;;;;5036188;28;20187;-72
2023/09/22 11:07:53;;;;;;;1.00;0.70;;;20.40;99.90;;;;;;5036634;28;20177;-72
2023/09/22 11:10:24;;;;;;;1.90;0.77;;;20.40;99.90;;;;;;5068835;28;20181;-73
2023/09/22 11:12:54;;;;;;;1.73;0.90;;;20.40;99.90;;;;;;5037128;28;20243;-73
2023/09/22 11:15:20;;;;;;;1.35;0.70;;;20.50;99.90;;;;;;5070112;28;20259;-72
2023/09/22 11:17:47;;;;;;;2.03;0.80;;;20.50;99.90;;;;;;5037575;28;20177;-73
2023/09/22 11:20:16;;;;;;;1.10;0.90;;;20.60;99.90;;;;;;5038686;28;20200;-73
2023/09/22 11:22:43;;;;;;;3.33;1.20;;;20.80;99.90;;;;;;5041364;28;20191;-71
2023/09/22 11:25:11;;;;;;;3.83;1.33;;;21.00;99.90;;;;;;5036257;28;20201;-72
2023/09/22 11:27:48;;;;;;;2.28;0.65;;;21.30;99.90;;;;;;5071332;28;20172;-73
2023/09/22 11:30:20;;;;;;;1.55;0.77;;;21.50;99.90;;;;;;5036906;28;20177;-74
2023/09/22 11:32:47;;;;;;;1.80;0.80;;;21.60;99.90;;;;;;5067968;28;20216;-73
2023/09/22 11:35:40;;;;;;;1.75;1.00;;;21.70;99.90;;;;;;5036349;28;20184;-69
2023/09/22 11:38:28;;;;;;;1.77;0.80;;;21.80;99.90;;;;;;5036385;28;20201;-67
2023/09/22 11:41:10;;;;;;;1.45;0.80;;;21.80;99.90;;;;;;5063297;28;20200;-72
2023/09/22 11:43:37;;;;;;;1.15;0.75;;;21.70;99.90;;;;;;5036361;28;20174;-70
2023/09/22 11:46:22;;;;;;;2.15;0.85;;;21.70;99.90;;;;;;5044591;28;20227;-72
2023/09/22 11:49:02;;;;;;;2.03;0.80;;;21.60;99.90;;;;;;5036541;28;20166;-73
2023/09/22 11:51:43;;;;;;;1.50;0.90;;;21.50;99.90;;;;;;5037394;28;20173;-67
2023/09/22 11:54:14;;;;;;;1.65;1.00;;;21.40;99.90;;;;;;5034972;28;20258;-73
2023/09/22 11:56:42;;;;;;;1.90;0.85;;;21.40;99.90;;;;;;5036154;28;20339;-73
2023/09/22 11:59:26;;;;;;;3.03;1.00;;;21.50;99.90;;;;;;5035684;28;20205;-73
2023/09/22 12:01:51;;;;;;;1.60;0.90;;;21.50;99.90;;;;;;5036613;28;20266;-73
2023/09/22 12:04:22;;;;;;;1.23;0.80;;;21.60;99.90;;;;;;5044650;28;20218;-72
2023/09/22 12:06:53;;;;;;;1.73;1.00;;;21.70;99.90;;;;;;5045654;28;20205;-72
2023/09/22 12:09:19;;;;;;;1.40;0.63;;;21.80;99.90;;;;;;5016965;28;20159;-67
2023/09/22 12:11:48;;;;;;;1.98;0.90;;;21.80;99.90;;;;;;5068351;28;20189;-73
2023/09/22 12:14:16;;;;;;;2.42;0.93;;;21.80;99.90;;;;;;5036217;28;20205;-71
2023/09/22 12:16:42;;;;;;;1.50;0.82;;;21.80;99.90;;;;;;5075984;28;20241;-73
2023/09/22 12:19:08;;;;;;;1.63;0.90;;;21.90;99.90;;;;;;5069927;28;20205;-64
2023/09/22 12:21:35;;;;;;;1.35;0.82;;;21.90;99.90;;;;;;5038431;28;20181;-73
2023/09/22 12:24:01;;;;;;;1.45;0.70;;;22.00;99.90;;;;;;5073165;28;20181;-70
2023/09/22 12:26:27;;;;;;;2.90;0.70;;;22.00;99.90;;;;;;5039441;28;20264;-73
2023/09/22 12:28:53;;;;;;;1.27;0.70;;;21.90;99.90;;;;;;5039671;28;20315;-73
2023/09/22 12:31:19;;;;;;;2.50;0.80;;;21.80;99.90;;;;;;5073509;28;20173;-71
2023/09/22 12:33:46;;;;;;;2.30;0.77;;;21.70;99.90;;;;;;5072078;28;20266;-73
2023/09/22 12:36:17;;;;;;;2.42;0.90;;;21.70;99.90;;;;;;5038378;28;20284;-72
2023/09/22 12:38:44;;;;;;;1.90;0.90;;;21.70;99.90;;;;;;5039881;28;20193;-74
2023/09/22 12:41:13;;;;;;;2.28;0.90;;;21.90;99.90;;;;;;5078278;28;20196;-72
2023/09/22 12:43:41;;;;;;;3.75;0.88;;;22.10;99.90;;;;;;5073319;28;20173;-72
2023/09/22 12:46:08;;;;;;;1.08;0.70;;;22.20;99.90;;;;;;5068966;28;20241;-72
2023/09/22 12:48:34;;;;;;;2.22;0.75;;;22.40;99.90;;;;;;5039663;28;20181;-72
2023/09/22 12:50:59;;;;;;;1.52;0.68;;;22.40;99.90;;;;;;5039000;28;20192;-71
2023/09/22 12:53:27;;;;;;;1.05;0.65;;;22.40;99.90;;;;;;5038137;28;20198;-72
2023/09/22 12:55:57;;;;;;;1.35;0.60;;;22.30;99.90;;;;;;5070345;28;20400;-71
2023/09/22 12:58:26;;;;;;;1.52;0.50;;;22.20;99.90;;;;;;5072307;28;20177;-71